Time;durP1;ratioP1;P1;durP2;ratioP2;P2;SDS_P1;SDS_P2;PMS_P1;PMS_P2;Temp;Humidity;BMP_temperature;BMP_pressure;BME280_temperature;BME280_humidity;BME280_pressure;Samples;Min_cycle;Max_cycle;Signal;HPM_P1;HPM_P2
2021/12/20 00:00:47;;;;;;;16.67;10.10;;;;;;;;;;5093642;28;20898;-71
2021/12/20 00:03:14;;;;;;;20.77;10.83;;;;;;;;;;5094889;28;20428;-73
2021/12/20 00:05:40;;;;;;;16.03;10.13;;;;;;;;;;5094741;28;20459;-71
2021/12/20 00:08:06;;;;;;;16.60;10.47;;;;;;;;;;5094761;28;20404;-70
2021/12/20 00:10:32;;;;;;;18.57;10.87;;;;;;;;;;5094860;28;20420;-70
2021/12/20 00:12:58;;;;;;;16.67;10.90;;;;;;;;;;5094576;28;20989;-72
2021/12/20 00:15:25;;;;;;;17.07;10.10;;;;;;;;;;5093528;28;20504;-69
2021/12/20 00:17:51;;;;;;;20.40;11.20;;;;;;;;;;5094462;28;20731;-70
2021/12/20 00:20:18;;;;;;;17.80;11.07;;;;;;;;;;5094657;28;20404;-69
2021/12/20 00:22:44;;;;;;;15.10;10.20;;;;;;;;;;5094563;28;20400;-69
2021/12/20 00:25:10;;;;;;;18.13;10.37;;;;;;;;;;5094493;28;20475;-69
2021/12/20 00:27:36;;;;;;;20.00;11.30;;;;;;;;;;5094650;28;20404;-70
2021/12/20 00:30:04;;;;;;;20.03;10.77;;;;;;;;;;5094417;28;20408;-70
2021/12/20 00:32:30;;;;;;;18.67;11.17;;;;;;;;;;5094543;28;20430;-72
2021/12/20 00:34:56;;;;;;;21.90;12.63;;;;;;;;;;5092969;28;20508;-72
2021/12/20 00:40:21;;;;;;;22.57;11.53;;;;;;;;;;5094248;28;20760;-69
2021/12/20 00:42:47;;;;;;;19.83;10.97;;;;;;;;;;5092918;28;20919;-69
2021/12/20 00:45:13;;;;;;;18.93;12.17;;;;;;;;;;5093964;28;20462;-69
2021/12/20 00:47:41;;;;;;;16.60;10.40;;;;;;;;;;5093941;28;20457;-70
2021/12/20 00:50:08;;;;;;;21.37;11.67;;;;;;;;;;5094021;28;20465;-69
2021/12/20 00:52:34;;;;;;;23.97;12.00;;;;;;;;;;5093889;28;20407;-69
2021/12/20 00:55:00;;;;;;;22.00;11.57;;;;;;;;;;5093858;28;20413;-70
2021/12/20 00:57:26;;;;;;;19.30;11.43;;;;;;;;;;5093501;28;20526;-69
2021/12/20 00:59:52;;;;;;;20.23;11.80;;;;;;;;;;5093834;28;20457;-72
2021/12/20 01:02:18;;;;;;;19.97;11.23;;;;;;;;;;5094253;28;20392;-73
2021/12/20 01:04:44;;;;;;;17.47;11.53;;;;;;;;;;5093590;28;20473;-72
2021/12/20 01:07:11;;;;;;;22.60;11.77;;;;;;;;;;5092403;28;20400;-73
2021/12/20 01:09:37;;;;;;;24.60;13.43;;;;;;;;;;5093637;28;20419;-71
2021/12/20 01:12:06;;;;;;;23.20;12.90;;;;;;;;;;5093701;28;20880;-72
2021/12/20 01:14:34;;;;;;;18.80;10.50;;;;;;;;;;5093425;28;20564;-72
2021/12/20 01:17:05;;;;;;;21.10;11.93;;;;;;;;;;5093443;28;20418;-72
2021/12/20 01:19:35;;;;;;;21.20;11.90;;;;;;;;;;5093591;28;20883;-72
2021/12/20 01:22:01;;;;;;;17.90;11.43;;;;;;;;;;5093386;28;20398;-73
2021/12/20 01:24:27;;;;;;;22.13;11.80;;;;;;;;;;5093340;28;20997;-73
2021/12/20 01:26:53;;;;;;;24.37;11.60;;;;;;;;;;5093420;28;20408;-73
2021/12/20 01:29:19;;;;;;;22.07;12.10;;;;;;;;;;5093453;28;20423;-73
2021/12/20 01:31:46;;;;;;;21.30;11.47;;;;;;;;;;5093381;28;20867;-72
2021/12/20 01:34:12;;;;;;;19.70;11.57;;;;;;;;;;5093281;28;20916;-72
2021/12/20 01:36:38;;;;;;;19.50;11.30;;;;;;;;;;5091941;28;20416;-72
2021/12/20 01:39:05;;;;;;;20.40;12.20;;;;;;;;;;5093213;28;20488;-73
2021/12/20 01:41:31;;;;;;;23.13;13.50;;;;;;;;;;5093406;28;20436;-74
2021/12/20 01:43:58;;;;;;;19.33;11.03;;;;;;;;;;5092984;28;20462;-72
2021/12/20 01:46:24;;;;;;;23.93;13.13;;;;;;;;;;5095301;28;20403;-74
2021/12/20 01:48:51;;;;;;;22.43;12.27;;;;;;;;;;5097497;28;20409;-73
2021/12/20 01:53:43;;;;;;;18.40;11.63;;;;;;;;;;5097299;28;20496;-73
2021/12/20 01:56:09;;;;;;;19.70;11.80;;;;;;;;;;5097305;28;20418;-73
2021/12/20 01:58:35;;;;;;;20.30;12.00;;;;;;;;;;5095627;28;21035;-73
2021/12/20 02:03:43;;;;;;;19.57;11.47;;;;;;;;;;5097109;28;20419;-72
2021/12/20 02:06:19;;;;;;;22.83;11.53;;;;;;;;;;5097214;28;20420;-73
2021/12/20 02:08:45;;;;;;;21.63;12.37;;;;;;;;;;5097039;28;20406;-73
2021/12/20 02:11:11;;;;;;;21.13;11.00;;;;;;;;;;5097099;28;20442;-73
2021/12/20 02:13:38;;;;;;;19.73;11.37;;;;;;;;;;5096862;28;20423;-74
2021/12/20 02:16:05;;;;;;;22.10;12.10;;;;;;;;;;5097018;28;20389;-74
2021/12/20 02:18:32;;;;;;;22.37;12.00;;;;;;;;;;5096731;28;20441;-72
2021/12/20 02:20:58;;;;;;;21.50;10.80;;;;;;;;;;5096755;28;20416;-74
2021/12/20 02:23:25;;;;;;;22.67;12.43;;;;;;;;;;5096810;28;20407;-72
2021/12/20 02:25:51;;;;;;;19.53;11.27;;;;;;;;;;5095476;28;20416;-72
2021/12/20 02:28:18;;;;;;;19.17;11.37;;;;;;;;;;5096667;28;20404;-72
2021/12/20 02:38:55;;;;;;;21.70;10.90;;;;;;;;;;5080065;28;20415;-70
2021/12/20 02:41:25;;;;;;;21.53;11.63;;;;;;;;;;5095157;28;20903;-71
2021/12/20 02:43:55;;;;;;;22.20;12.00;;;;;;;;;;5095000;28;20889;-71
2021/12/20 02:46:33;;;;;;;23.43;11.53;;;;;;;;;;5096428;28;20415;-72
2021/12/20 02:48:59;;;;;;;20.70;11.60;;;;;;;;;;5095048;28;20436;-69
2021/12/20 02:51:26;;;;;;;21.93;12.40;;;;;;;;;;5096290;28;20925;-73
2021/12/20 02:53:53;;;;;;;22.93;12.50;;;;;;;;;;5096329;28;20400;-71
2021/12/20 02:56:19;;;;;;;20.47;11.73;;;;;;;;;;5095557;28;20406;-72
2021/12/20 02:58:45;;;;;;;23.57;12.20;;;;;;;;;;5094826;28;20431;-72
2021/12/20 03:01:12;;;;;;;22.67;11.50;;;;;;;;;;5096178;28;20412;-70
2021/12/20 03:03:38;;;;;;;25.80;12.37;;;;;;;;;;5094621;28;20464;-70
2021/12/20 03:06:12;;;;;;;23.43;12.00;;;;;;;;;;5095961;28;20411;-71
2021/12/20 03:08:39;;;;;;;23.67;12.63;;;;;;;;;;5096102;28;20549;-71
2021/12/20 03:11:05;;;;;;;23.73;11.67;;;;;;;;;;5095876;28;20514;-72
2021/12/20 03:13:31;;;;;;;24.00;13.10;;;;;;;;;;5095730;28;20421;-72
2021/12/20 03:15:57;;;;;;;25.03;13.63;;;;;;;;;;5095776;28;20883;-72
2021/12/20 03:18:23;;;;;;;24.13;12.80;;;;;;;;;;5095616;28;20465;-70
2021/12/20 03:20:49;;;;;;;20.90;12.07;;;;;;;;;;5095568;28;20405;-70
2021/12/20 03:23:15;;;;;;;27.13;13.10;;;;;;;;;;5095537;28;20436;-70
2021/12/20 03:25:41;;;;;;;22.40;12.70;;;;;;;;;;5095688;28;20463;-69
2021/12/20 03:28:07;;;;;;;22.90;11.97;;;;;;;;;;5095440;28;20750;-70
2021/12/20 03:30:33;;;;;;;24.40;12.87;;;;;;;;;;5094250;28;20465;-72
2021/12/20 03:32:59;;;;;;;25.60;13.30;;;;;;;;;;5095478;28;20407;-70
2021/12/20 03:35:25;;;;;;;20.23;11.90;;;;;;;;;;5095523;28;20411;-69
2021/12/20 03:37:51;;;;;;;23.13;12.30;;;;;;;;;;5095088;28;20427;-71
2021/12/20 03:40:18;;;;;;;21.47;11.43;;;;;;;;;;5095258;28;20409;-69
2021/12/20 03:42:45;;;;;;;21.60;11.87;;;;;;;;;;5095294;28;20502;-70
2021/12/20 03:45:14;;;;;;;24.20;13.13;;;;;;;;;;5094032;28;20468;-71
2021/12/20 03:47:40;;;;;;;23.07;12.20;;;;;;;;;;5095235;28;20404;-72
2021/12/20 03:50:07;;;;;;;22.73;12.30;;;;;;;;;;5095182;28;20872;-71
2021/12/20 03:52:33;;;;;;;23.23;12.47;;;;;;;;;;5094963;28;20438;-73
2021/12/20 03:55:01;;;;;;;25.30;12.90;;;;;;;;;;5094650;28;20412;-71
2021/12/20 03:57:27;;;;;;;27.23;13.70;;;;;;;;;;5093415;28;20549;-69
2021/12/20 03:59:53;;;;;;;26.07;13.33;;;;;;;;;;5094909;28;20466;-70
2021/12/20 04:02:21;;;;;;;22.37;11.70;;;;;;;;;;5094894;28;20398;-69
2021/12/20 04:04:47;;;;;;;21.70;12.80;;;;;;;;;;5094760;28;20472;-69
2021/12/20 04:07:14;;;;;;;25.40;12.90;;;;;;;;;;5094765;28;20415;-69
2021/12/20 04:09:40;;;;;;;21.77;13.23;;;;;;;;;;5093994;28;20409;-69
2021/12/20 04:12:06;;;;;;;26.00;13.53;;;;;;;;;;5093267;28;20412;-69
2021/12/20 04:14:32;;;;;;;25.80;13.80;;;;;;;;;;5094486;28;20409;-69
2021/12/20 04:16:58;;;;;;;25.80;13.00;;;;;;;;;;5094538;28;20479;-71
2021/12/20 04:19:24;;;;;;;22.10;12.00;;;;;;;;;;5094629;28;20441;-72
2021/12/20 04:21:50;;;;;;;24.07;12.13;;;;;;;;;;5094372;28;20407;-71
2021/12/20 04:24:16;;;;;;;21.30;11.57;;;;;;;;;;5094434;28;20494;-71
2021/12/20 04:26:42;;;;;;;23.77;12.40;;;;;;;;;;5094418;28;20441;-71
2021/12/20 04:29:09;;;;;;;25.57;11.77;;;;;;;;;;5094345;28;20417;-70
2021/12/20 04:31:36;;;;;;;19.63;11.27;;;;;;;;;;5094382;28;20416;-69
2021/12/20 04:34:02;;;;;;;23.87;13.70;;;;;;;;;;5094304;28;20500;-70
2021/12/20 04:36:29;;;;;;;20.90;11.43;;;;;;;;;;5094164;28;20400;-73
2021/12/20 04:38:56;;;;;;;21.50;12.53;;;;;;;;;;5094162;28;20569;-71
2021/12/20 04:41:22;;;;;;;29.37;13.50;;;;;;;;;;5094140;28;20925;-70
2021/12/20 04:43:48;;;;;;;20.67;11.97;;;;;;;;;;5093934;28;20421;-72
2021/12/20 04:46:14;;;;;;;26.90;12.93;;;;;;;;;;5093986;28;20420;-73
2021/12/20 04:48:40;;;;;;;23.30;12.47;;;;;;;;;;5094030;28;20411;-71
2021/12/20 04:51:06;;;;;;;20.50;11.80;;;;;;;;;;5094011;28;20415;-70
2021/12/20 04:53:32;;;;;;;23.03;12.57;;;;;;;;;;5092717;28;20503;-69
2021/12/20 04:55:58;;;;;;;21.97;12.33;;;;;;;;;;5093809;28;20504;-70
2021/12/20 04:58:24;;;;;;;26.60;12.50;;;;;;;;;;5093670;28;20464;-70
2021/12/20 05:00:50;;;;;;;22.07;12.10;;;;;;;;;;5093799;28;20427;-72
2021/12/20 05:03:16;;;;;;;23.97;12.07;;;;;;;;;;5093826;28;20793;-72
2021/12/20 05:05:42;;;;;;;20.43;11.17;;;;;;;;;;5092393;28;20901;-72
2021/12/20 05:08:10;;;;;;;20.77;11.30;;;;;;;;;;5093666;28;20458;-72
2021/12/20 05:10:39;;;;;;;22.63;12.07;;;;;;;;;;5093755;28;20424;-69
2021/12/20 05:13:07;;;;;;;26.67;13.10;;;;;;;;;;5092282;28;20771;-72
2021/12/20 05:15:33;;;;;;;23.70;12.87;;;;;;;;;;5093487;28;20744;-72
2021/12/20 05:18:00;;;;;;;21.00;12.40;;;;;;;;;;5093588;28;20392;-72
2021/12/20 05:20:27;;;;;;;23.17;11.50;;;;;;;;;;5092243;28;20770;-72
2021/12/20 05:22:54;;;;;;;25.20;11.90;;;;;;;;;;5093493;28;20425;-72
2021/12/20 05:25:20;;;;;;;18.73;10.70;;;;;;;;;;5093276;28;20892;-72
2021/12/20 05:27:46;;;;;;;24.17;11.63;;;;;;;;;;5092131;28;20416;-70
2021/12/20 05:30:13;;;;;;;20.97;11.40;;;;;;;;;;5092074;28;20503;-70
2021/12/20 05:32:39;;;;;;;22.37;11.27;;;;;;;;;;5093402;28;20452;-72
2021/12/20 05:35:06;;;;;;;22.37;11.90;;;;;;;;;;5093317;28;20416;-72
2021/12/20 05:37:32;;;;;;;18.50;10.70;;;;;;;;;;5093288;28;20447;-69
2021/12/20 05:39:58;;;;;;;23.67;12.40;;;;;;;;;;5093271;28;20410;-72
2021/12/20 05:42:24;;;;;;;21.90;11.57;;;;;;;;;;5093197;28;20455;-72
2021/12/20 05:44:51;;;;;;;19.90;10.03;;;;;;;;;;5093104;28;20478;-70
2021/12/20 05:47:18;;;;;;;21.33;10.83;;;;;;;;;;5093158;28;20404;-69
2021/12/20 05:49:45;;;;;;;20.80;10.27;;;;;;;;;;5093121;28;20903;-69
2021/12/20 05:52:11;;;;;;;20.63;10.77;;;;;;;;;;5093233;28;20491;-69
2021/12/20 05:54:37;;;;;;;21.10;12.03;;;;;;;;;;5093125;28;20404;-70
2021/12/20 05:57:03;;;;;;;21.77;10.77;;;;;;;;;;5092839;28;20460;-70
2021/12/20 05:59:29;;;;;;;19.90;11.00;;;;;;;;;;5092961;28;20739;-70
2021/12/20 06:01:55;;;;;;;22.43;11.23;;;;;;;;;;5092985;28;20462;-69
2021/12/20 06:04:21;;;;;;;18.53;10.53;;;;;;;;;;5092922;28;20453;-68
2021/12/20 06:06:47;;;;;;;20.80;10.90;;;;;;;;;;5091630;28;20409;-68
2021/12/20 06:09:13;;;;;;;19.33;11.80;;;;;;;;;;5091832;28;20517;-70
2021/12/20 06:11:39;;;;;;;20.87;10.87;;;;;;;;;;5092867;28;20408;-69
2021/12/20 06:14:05;;;;;;;21.73;10.97;;;;;;;;;;5091777;28;20488;-69
2021/12/20 06:16:31;;;;;;;18.37;10.53;;;;;;;;;;5091515;28;20416;-69
2021/12/20 06:18:57;;;;;;;18.93;11.03;;;;;;;;;;5092873;28;20447;-69
2021/12/20 06:21:23;;;;;;;21.17;10.10;;;;;;;;;;5092872;28;20441;-69
2021/12/20 06:23:49;;;;;;;20.10;10.07;;;;;;;;;;5092767;28;20435;-69
2021/12/20 06:26:15;;;;;;;18.87;10.60;;;;;;;;;;5092725;28;20418;-71
2021/12/20 06:28:41;;;;;;;20.20;10.63;;;;;;;;;;5092804;28;20408;-70
2021/12/20 06:31:07;;;;;;;23.07;11.87;;;;;;;;;;5092774;28;20507;-68
2021/12/20 06:33:33;;;;;;;21.90;11.03;;;;;;;;;;5096345;28;20504;-70
2021/12/20 06:35:59;;;;;;;20.17;11.53;;;;;;;;;;5096307;28;20401;-71
2021/12/20 06:38:25;;;;;;;20.03;10.57;;;;;;;;;;5096557;28;20409;-69
2021/12/20 06:40:52;;;;;;;22.47;12.63;;;;;;;;;;5096607;28;20412;-69
2021/12/20 06:43:18;;;;;;;25.07;11.70;;;;;;;;;;5095109;28;20427;-71
2021/12/20 06:45:45;;;;;;;21.63;11.60;;;;;;;;;;5096207;28;20472;-71
2021/12/20 06:48:11;;;;;;;20.63;11.13;;;;;;;;;;5096243;28;20764;-69
2021/12/20 06:50:37;;;;;;;24.07;11.93;;;;;;;;;;5095032;28;20417;-69
2021/12/20 06:53:05;;;;;;;21.40;10.87;;;;;;;;;;5096154;28;20419;-71
2021/12/20 06:55:31;;;;;;;21.63;10.30;;;;;;;;;;5096173;28;20440;-72
2021/12/20 06:57:58;;;;;;;19.77;11.70;;;;;;;;;;5095886;28;20540;-73
2021/12/20 07:00:24;;;;;;;22.27;11.60;;;;;;;;;;5095961;28;20419;-73
2021/12/20 07:02:50;;;;;;;19.70;11.20;;;;;;;;;;5096089;28;20402;-70
2021/12/20 07:05:16;;;;;;;19.00;10.37;;;;;;;;;;5095798;28;20820;-70
2021/12/20 07:07:42;;;;;;;20.30;10.17;;;;;;;;;;5094559;28;21300;-71
2021/12/20 07:10:08;;;;;;;23.53;12.37;;;;;;;;;;5094519;28;20457;-72
2021/12/20 07:12:36;;;;;;;18.27;9.93;;;;;;;;;;5095736;28;20432;-73
2021/12/20 07:15:03;;;;;;;20.90;11.03;;;;;;;;;;5095628;28;20415;-73
2021/12/20 07:17:30;;;;;;;20.70;10.10;;;;;;;;;;5095607;28;20403;-73
2021/12/20 07:19:58;;;;;;;23.33;11.10;;;;;;;;;;5095636;28;20405;-69
2021/12/20 07:22:24;;;;;;;20.30;10.23;;;;;;;;;;5095544;28;20419;-69
2021/12/20 07:24:50;;;;;;;19.00;10.77;;;;;;;;;;5095497;28;20528;-71
2021/12/20 07:27:18;;;;;;;25.53;10.97;;;;;;;;;;5095417;28;20494;-71
2021/12/20 07:29:44;;;;;;;25.63;11.07;;;;;;;;;;5094223;28;21045;-72
2021/12/20 07:32:11;;;;;;;19.17;11.80;;;;;;;;;;5095372;28;20393;-72
2021/12/20 07:34:37;;;;;;;26.47;13.60;;;;;;;;;;5095471;28;20405;-72
2021/12/20 07:37:04;;;;;;;22.03;11.97;;;;;;;;;;5094082;28;20397;-72
2021/12/20 07:39:30;;;;;;;21.87;11.37;;;;;;;;;;5095256;28;20409;-71
2021/12/20 07:41:56;;;;;;;19.70;11.03;;;;;;;;;;5093907;28;20403;-69
2021/12/20 07:44:23;;;;;;;20.50;10.90;;;;;;;;;;5094038;28;20469;-72
2021/12/20 07:46:49;;;;;;;22.57;11.33;;;;;;;;;;5093965;28;20439;-72
2021/12/20 07:49:15;;;;;;;24.33;11.60;;;;;;;;;;5095176;28;20833;-72
2021/12/20 07:51:41;;;;;;;21.40;12.10;;;;;;;;;;5095084;28;20806;-72
2021/12/20 07:54:07;;;;;;;23.03;11.70;;;;;;;;;;5094978;28;20446;-72
2021/12/20 07:56:33;;;;;;;22.60;11.70;;;;;;;;;;5094559;28;20411;-73
2021/12/20 07:58:59;;;;;;;23.43;12.37;;;;;;;;;;5094908;28;20404;-73
2021/12/20 08:01:26;;;;;;;22.20;11.83;;;;;;;;;;5094843;28;20460;-73
2021/12/20 08:03:53;;;;;;;23.70;11.83;;;;;;;;;;5094916;28;20453;-72
2021/12/20 08:06:19;;;;;;;23.00;12.20;;;;;;;;;;5093497;28;20506;-72
2021/12/20 08:08:46;;;;;;;24.93;13.30;;;;;;;;;;5094714;28;20445;-73
2021/12/20 08:11:12;;;;;;;21.97;12.17;;;;;;;;;;5094630;28;20824;-73
2021/12/20 08:13:44;;;;;;;23.13;12.67;;;;;;;;;;5094440;28;20417;-72
2021/12/20 08:16:11;;;;;;;28.43;12.97;;;;;;;;;;5094439;28;20492;-74
2021/12/20 08:18:37;;;;;;;24.50;11.70;;;;;;;;;;5094497;28;20503;-73
2021/12/20 08:21:03;;;;;;;26.30;12.20;;;;;;;;;;5093180;28;20770;-74
2021/12/20 08:23:29;;;;;;;23.27;10.73;;;;;;;;;;5094324;28;20401;-73
2021/12/20 08:25:56;;;;;;;22.33;11.50;;;;;;;;;;5094070;28;20547;-74
2021/12/20 08:28:22;;;;;;;23.53;13.00;;;;;;;;;;5094356;28;20396;-73
2021/12/20 08:30:48;;;;;;;27.00;13.53;;;;;;;;;;5094134;28;20401;-73
2021/12/20 08:33:14;;;;;;;27.30;12.67;;;;;;;;;;5094432;28;20749;-74
2021/12/20 08:35:40;;;;;;;24.80;13.00;;;;;;;;;;5094267;28;20400;-74
2021/12/20 08:38:06;;;;;;;30.20;14.27;;;;;;;;;;5092878;28;20443;-74
2021/12/20 08:40:32;;;;;;;24.30;13.43;;;;;;;;;;5094122;28;20765;-74
2021/12/20 08:42:58;;;;;;;24.30;13.37;;;;;;;;;;5093942;28;20425;-73
2021/12/20 08:45:24;;;;;;;28.00;12.90;;;;;;;;;;5093846;28;20893;-74
2021/12/20 08:47:51;;;;;;;23.10;11.80;;;;;;;;;;5093982;28;20484;-74
2021/12/20 08:50:18;;;;;;;22.43;12.20;;;;;;;;;;5094010;28;20424;-72
2021/12/20 08:52:44;;;;;;;25.67;13.57;;;;;;;;;;5093937;28;20406;-73
2021/12/20 08:55:11;;;;;;;22.53;12.83;;;;;;;;;;5092215;28;20418;-72
2021/12/20 08:57:37;;;;;;;25.60;14.33;;;;;;;;;;5093552;28;20499;-74
2021/12/20 09:00:05;;;;;;;33.33;15.10;;;;;;;;;;5093807;28;20472;-73
2021/12/20 09:02:31;;;;;;;29.57;14.30;;;;;;;;;;5093807;28;20411;-74
2021/12/20 09:04:57;;;;;;;24.57;12.93;;;;;;;;;;5092393;28;20487;-73
2021/12/20 09:07:23;;;;;;;22.70;12.60;;;;;;;;;;5093686;28;20416;-72
2021/12/20 09:09:49;;;;;;;27.13;13.80;;;;;;;;;;5093624;28;20460;-74
2021/12/20 09:12:18;;;;;;;27.73;13.57;;;;;;;;;;5093533;28;20428;-72
2021/12/20 09:14:44;;;;;;;21.10;11.93;;;;;;;;;;5093395;28;20397;-74
2021/12/20 09:17:10;;;;;;;29.97;13.43;;;;;;;;;;5093442;28;20436;-72
2021/12/20 09:19:36;;;;;;;33.10;15.10;;;;;;;;;;5093351;28;20419;-74
2021/12/20 09:22:05;;;;;;;26.87;14.30;;;;;;;;;;5093451;28;20424;-73
2021/12/20 09:24:31;;;;;;;30.00;14.80;;;;;;;;;;5093323;28;20558;-73
2021/12/20 09:26:57;;;;;;;27.57;13.97;;;;;;;;;;5093249;28;20444;-73
2021/12/20 09:29:23;;;;;;;28.50;14.37;;;;;;;;;;5093442;28;20404;-71
2021/12/20 09:31:49;;;;;;;26.80;13.47;;;;;;;;;;5093329;28;20487;-72
2021/12/20 09:34:15;;;;;;;31.27;14.40;;;;;;;;;;5093325;28;20404;-74
2021/12/20 09:36:42;;;;;;;29.57;14.40;;;;;;;;;;5093207;28;20393;-75
2021/12/20 09:39:11;;;;;;;30.70;16.27;;;;;;;;;;5091923;28;20493;-73
2021/12/20 09:44:07;;;;;;;35.10;15.77;;;;;;;;;;5093026;28;20559;-72
2021/12/20 09:46:33;;;;;;;34.57;15.03;;;;;;;;;;5093087;28;20416;-72
2021/12/20 09:49:00;;;;;;;33.77;16.03;;;;;;;;;;5093114;28;20423;-76
2021/12/20 09:51:26;;;;;;;33.03;15.30;;;;;;;;;;5093065;28;20417;-72
2021/12/20 09:53:55;;;;;;;30.53;14.70;;;;;;;;;;5093135;28;20890;-72
2021/12/20 09:56:23;;;;;;;34.67;16.67;;;;;;;;;;5092737;28;20502;-73
2021/12/20 09:58:51;;;;;;;32.43;15.07;;;;;;;;;;5093136;28;20796;-73
2021/12/20 10:01:19;;;;;;;31.03;13.80;;;;;;;;;;5093017;28;20887;-73
2021/12/20 10:03:45;;;;;;;23.50;12.43;;;;;;;;;;5093030;28;20406;-71
2021/12/20 10:06:11;;;;;;;31.00;13.80;;;;;;;;;;5093062;28;20417;-73
2021/12/20 10:08:48;;;;;;;32.17;14.27;;;;;;;;;;5097033;28;20503;-73
2021/12/20 10:11:22;;;;;;;35.80;16.27;;;;;;;;;;5097258;28;20412;-72
2021/12/20 10:13:48;;;;;;;33.03;14.87;;;;;;;;;;5096932;28;20930;-71
2021/12/20 10:16:21;;;;;;;34.23;16.07;;;;;;;;;;5096819;28;20411;-71
2021/12/20 10:18:48;;;;;;;29.70;15.03;;;;;;;;;;5096882;28;20393;-73
2021/12/20 10:21:14;;;;;;;35.07;16.50;;;;;;;;;;5096797;28;20899;-74
2021/12/20 10:23:45;;;;;;;30.47;15.00;;;;;;;;;;5095566;28;20410;-72
2021/12/20 10:26:19;;;;;;;36.53;15.47;;;;;;;;;;5096781;28;20481;-75
2021/12/20 10:28:45;;;;;;;29.93;15.20;;;;;;;;;;5095522;28;20815;-74
2021/12/20 10:31:13;;;;;;;35.07;15.30;;;;;;;;;;5095401;28;20430;-74
2021/12/20 10:33:40;;;;;;;28.33;14.53;;;;;;;;;;5096652;28;20412;-73
2021/12/20 10:36:07;;;;;;;26.53;13.70;;;;;;;;;;5096275;28;20401;-73
2021/12/20 10:38:35;;;;;;;30.53;13.90;;;;;;;;;;5096560;28;20739;-72
2021/12/20 10:41:12;;;;;;;23.50;12.50;;;;;;;;;;5096513;28;20415;-73
2021/12/20 10:43:49;;;;;;;28.53;13.70;;;;;;;;;;5095097;28;20776;-74
2021/12/20 10:46:20;;;;;;;24.00;12.60;;;;;;;;;;5096509;28;20417;-73
2021/12/20 10:48:47;;;;;;;15.57;9.00;;;;;;;;;;5096316;28;20491;-71
2021/12/20 10:51:32;;;;;;;17.97;9.47;;;;;;;;;;5096277;28;20908;-73
2021/12/20 10:54:02;;;;;;;20.07;10.33;;;;;;;;;;5096309;28;20408;-71
2021/12/20 10:56:33;;;;;;;20.17;9.80;;;;;;;;;;5095862;28;20406;-73
2021/12/20 10:59:00;;;;;;;20.80;11.40;;;;;;;;;;5096209;28;20472;-73
2021/12/20 11:04:31;;;;;;;17.07;10.00;;;;;;;;;;5096273;28;20463;-71
2021/12/20 11:09:50;;;;;;;23.53;10.33;;;;;;;;;;5074252;28;20397;-72
2021/12/20 11:12:23;;;;;;;30.00;13.23;;;;;;;;;;5095755;28;20433;-72
2021/12/20 11:14:51;;;;;;;20.20;10.57;;;;;;;;;;5095558;28;20406;-71
2021/12/20 11:17:19;;;;;;;17.87;10.10;;;;;;;;;;5095510;28;20415;-70
2021/12/20 11:19:46;;;;;;;21.10;10.67;;;;;;;;;;5095679;28;20397;-69
2021/12/20 11:22:14;;;;;;;25.23;12.20;;;;;;;;;;5095679;28;20444;-71
2021/12/20 11:24:44;;;;;;;22.90;11.60;;;;;;;;;;5095453;28;20554;-72
2021/12/20 11:27:16;;;;;;;22.30;11.20;;;;;;;;;;5095541;28;20773;-73
2021/12/20 11:29:43;;;;;;;17.33;10.13;;;;;;;;;;5095453;28;20385;-73
2021/12/20 11:32:10;;;;;;;20.27;10.97;;;;;;;;;;5094158;28;20412;-70
2021/12/20 11:34:38;;;;;;;15.20;9.77;;;;;;;;;;5095165;28;20407;-73
2021/12/20 11:37:05;;;;;;;14.43;9.33;;;;;;;;;;5095278;28;20539;-70
2021/12/20 11:39:32;;;;;;;17.30;9.10;;;;;;;;;;5095300;28;20405;-72
2021/12/20 11:41:58;;;;;;;16.80;9.60;;;;;;;;;;5095098;28;20419;-71
2021/12/20 11:44:27;;;;;;;14.30;7.73;;;;;;;;;;5095193;28;20473;-70
2021/12/20 11:47:01;;;;;;;15.90;7.90;;;;;;;;;;5095103;28;20403;-69
2021/12/20 11:49:28;;;;;;;16.97;9.17;;;;;;;;;;5095066;28;20462;-73
2021/12/20 11:52:00;;;;;;;17.33;9.60;;;;;;;;;;5094879;28;20426;-71
2021/12/20 11:54:37;;;;;;;17.70;9.90;;;;;;;;;;5094845;28;20431;-73
2021/12/20 11:57:04;;;;;;;15.03;8.90;;;;;;;;;;5094704;28;20483;-72
2021/12/20 11:59:49;;;;;;;16.17;8.53;;;;;;;;;;5094824;28;20404;-72
2021/12/20 12:02:23;;;;;;;17.17;8.63;;;;;;;;;;5093430;28;20774;-71
2021/12/20 12:05:00;;;;;;;15.87;8.80;;;;;;;;;;5094815;28;20482;-72
2021/12/20 12:07:27;;;;;;;12.90;7.57;;;;;;;;;;5094689;28;20461;-71
2021/12/20 12:10:00;;;;;;;15.70;8.10;;;;;;;;;;5093423;28;20921;-72
2021/12/20 12:12:28;;;;;;;17.97;10.50;;;;;;;;;;5094622;28;20910;-70
2021/12/20 12:15:05;;;;;;;18.00;9.90;;;;;;;;;;5094565;28;20412;-71
2021/12/20 12:17:49;;;;;;;23.53;11.47;;;;;;;;;;5094663;28;20407;-71
2021/12/20 12:20:35;;;;;;;24.50;11.77;;;;;;;;;;5094630;28;20407;-74
2021/12/20 12:23:16;;;;;;;22.43;10.87;;;;;;;;;;5094678;28;20394;-72
2021/12/20 12:25:53;;;;;;;19.57;10.23;;;;;;;;;;5094116;28;20467;-71
2021/12/20 12:28:26;;;;;;;21.30;10.33;;;;;;;;;;5094429;28;20464;-71
2021/12/20 12:30:59;;;;;;;20.67;10.63;;;;;;;;;;5093667;28;20406;-71
2021/12/20 12:33:26;;;;;;;18.90;11.00;;;;;;;;;;5094192;28;20401;-71
2021/12/20 12:35:53;;;;;;;21.83;11.03;;;;;;;;;;5092776;28;20416;-73
2021/12/20 12:38:26;;;;;;;22.10;10.70;;;;;;;;;;5094250;28;20406;-71
2021/12/20 12:40:54;;;;;;;21.97;9.30;;;;;;;;;;5094242;28;20434;-71
2021/12/20 12:43:26;;;;;;;20.30;9.30;;;;;;;;;;5093963;28;20427;-72
2021/12/20 12:45:58;;;;;;;15.63;8.30;;;;;;;;;;5092792;28;20896;-73
2021/12/20 12:48:41;;;;;;;14.47;8.40;;;;;;;;;;5094050;28;20792;-72
2021/12/20 12:51:27;;;;;;;17.83;8.60;;;;;;;;;;5093940;28;20500;-72
2021/12/20 12:53:54;;;;;;;15.07;7.30;;;;;;;;;;5079906;28;20451;-74
2021/12/20 12:56:41;;;;;;;16.10;8.53;;;;;;;;;;5092151;28;20774;-73
2021/12/20 12:59:09;;;;;;;16.10;9.43;;;;;;;;;;5092437;28;20411;-71
2021/12/20 13:01:38;;;;;;;14.10;8.07;;;;;;;;;;5092516;28;20846;-73
2021/12/20 13:04:04;;;;;;;14.17;7.40;;;;;;;;;;5093770;28;20392;-72
2021/12/20 13:06:30;;;;;;;15.37;7.20;;;;;;;;;;5093657;28;20416;-74
2021/12/20 13:08:59;;;;;;;15.03;8.20;;;;;;;;;;5093592;28;20400;-72
2021/12/20 13:11:26;;;;;;;15.73;8.20;;;;;;;;;;5093662;28;20434;-71
2021/12/20 13:14:06;;;;;;;19.47;9.43;;;;;;;;;;5093486;28;20421;-71
2021/12/20 13:16:32;;;;;;;16.10;9.10;;;;;;;;;;5093489;28;20892;-70
2021/12/20 13:18:59;;;;;;;14.47;9.10;;;;;;;;;;5093566;28;20404;-72
2021/12/20 13:21:37;;;;;;;15.40;8.60;;;;;;;;;;5093442;28;20420;-74
2021/12/20 13:24:14;;;;;;;13.47;8.77;;;;;;;;;;5093381;28;20453;-71
2021/12/20 13:26:40;;;;;;;13.60;9.07;;;;;;;;;;5093400;28;20424;-71
2021/12/20 13:29:06;;;;;;;17.17;8.60;;;;;;;;;;5093403;28;20404;-73
2021/12/20 13:31:32;;;;;;;15.70;8.50;;;;;;;;;;5092184;28;20426;-71
2021/12/20 13:34:04;;;;;;;16.57;8.07;;;;;;;;;;5093343;28;20432;-72
2021/12/20 13:36:34;;;;;;;12.20;7.70;;;;;;;;;;5093129;28;20415;-71
2021/12/20 13:39:10;;;;;;;16.03;8.67;;;;;;;;;;5093258;28;20390;-71
2021/12/20 13:41:39;;;;;;;15.97;8.30;;;;;;;;;;5092362;28;20393;-71
2021/12/20 13:44:10;;;;;;;14.27;7.80;;;;;;;;;;5091796;28;20416;-71
2021/12/20 13:46:49;;;;;;;19.93;8.50;;;;;;;;;;5093163;28;20415;-71
2021/12/20 13:49:15;;;;;;;11.87;7.00;;;;;;;;;;5093165;28;20873;-74
2021/12/20 13:51:41;;;;;;;14.50;7.57;;;;;;;;;;5093116;28;20416;-72
2021/12/20 13:54:25;;;;;;;12.80;7.13;;;;;;;;;;5093191;28;20405;-70
2021/12/20 13:56:51;;;;;;;14.37;6.90;;;;;;;;;;5091474;28;20487;-70
2021/12/20 13:59:21;;;;;;;11.93;6.80;;;;;;;;;;5093034;28;20433;-70
2021/12/20 14:01:48;;;;;;;12.57;7.33;;;;;;;;;;5093041;28;20431;-72
2021/12/20 14:04:25;;;;;;;13.73;7.47;;;;;;;;;;5092874;28;20449;-70
2021/12/20 14:06:51;;;;;;;12.87;7.40;;;;;;;;;;5093005;28;20399;-70
2021/12/20 14:09:23;;;;;;;13.87;7.80;;;;;;;;;;5091666;28;20403;-72
2021/12/20 14:12:06;;;;;;;15.33;7.67;;;;;;;;;;5092977;28;20524;-72
2021/12/20 14:14:32;;;;;;;15.37;6.77;;;;;;;;;;5092960;28;20381;-72
2021/12/20 14:16:59;;;;;;;14.37;8.50;;;;;;;;;;5092721;28;20485;-69
2021/12/20 14:19:44;;;;;;;13.70;7.80;;;;;;;;;;5092911;28;20399;-70
2021/12/20 14:22:10;;;;;;;14.60;7.23;;;;;;;;;;5091638;28;20465;-70
2021/12/20 14:24:39;;;;;;;12.80;6.30;;;;;;;;;;5092638;28;20444;-72
2021/12/20 14:27:05;;;;;;;10.97;6.43;;;;;;;;;;5092773;28;20757;-71
2021/12/20 14:29:32;;;;;;;10.90;5.83;;;;;;;;;;5092801;28;20419;-70
2021/12/20 14:32:00;;;;;;;8.70;5.40;;;;;;;;;;5092735;28;20404;-72
2021/12/20 14:34:38;;;;;;;13.73;5.57;;;;;;;;;;5091625;28;20419;-71
2021/12/20 14:37:09;;;;;;;13.27;7.30;;;;;;;;;;5091179;28;20401;-71
2021/12/20 14:39:42;;;;;;;11.63;5.40;;;;;;;;;;5092574;28;20404;-70
2021/12/20 14:42:08;;;;;;;10.00;4.90;;;;;;;;;;5092498;28;20456;-70
2021/12/20 14:44:44;;;;;;;17.50;4.97;;;;;;;;;;5092302;28;20502;-70
2021/12/20 14:47:16;;;;;;;8.77;4.80;;;;;;;;;;5091121;28;20428;-70